createdAt,value
2023-04-24T00:00:52.059Z,94273.25
2023-04-24T00:03:22.316Z,94269.53
2023-04-24T00:05:52.076Z,94270.63
2023-04-24T00:08:20.597Z,94267.03
2023-04-24T00:10:48.762Z,94267.19
2023-04-24T00:13:16.591Z,94269.03
2023-04-24T00:15:44.499Z,94271.59
2023-04-24T00:18:12.402Z,94271.59
2023-04-24T00:20:44.694Z,94273.25
2023-04-24T00:23:14.301Z,94279.94
2023-04-24T00:25:42.066Z,94274.38
2023-04-24T00:28:09.937Z,94276.81
2023-04-24T00:30:38.017Z,94273.53
2023-04-24T00:33:06.511Z,94273.72
2023-04-24T00:35:34.284Z,94271.38
2023-04-24T00:38:02.061Z,94278.28
2023-04-24T00:40:31.978Z,94271.81
2023-04-24T00:42:59.990Z,94271.69
2023-04-24T00:45:28.028Z,94267.75
2023-04-24T00:47:56.001Z,94269.81
2023-04-24T00:50:25.407Z,94263.34
2023-04-24T00:52:53.652Z,94259.56
2023-04-24T00:55:21.987Z,94268.03
2023-04-24T00:57:51.794Z,94268.03
2023-04-24T01:00:20.575Z,94264.69
2023-04-24T01:02:49.711Z,94258.50
2023-04-24T01:05:18.367Z,94265.81
2023-04-24T01:07:49.919Z,94268.19
2023-04-24T01:10:19.271Z,94263.47
2023-04-24T01:12:48.328Z,94272.94
2023-04-24T01:15:17.513Z,94262.84
2023-04-24T01:17:46.134Z,94257.84
2023-04-24T01:20:16.688Z,94262.84
2023-04-24T01:22:45.982Z,94261.84
2023-04-24T01:25:13.807Z,94263.38
2023-04-24T01:27:41.798Z,94267.81
2023-04-24T01:30:11.340Z,94265.31
2023-04-24T01:32:39.637Z,94260.13
2023-04-24T01:35:09.362Z,94270.38
2023-04-24T01:37:38.240Z,94262.13
2023-04-24T01:40:09.456Z,94263.06
2023-04-24T01:42:37.375Z,94265.25
2023-04-24T01:45:07.195Z,94261.91
2023-04-24T01:47:35.058Z,94263.91
2023-04-24T01:50:02.991Z,94260.19
2023-04-24T01:52:32.234Z,94264.53
2023-04-24T01:55:01.750Z,94265.66
2023-04-24T01:57:31.490Z,94270.22
2023-04-24T01:59:59.390Z,94263.75
2023-04-24T02:02:28.673Z,94266.22
2023-04-24T02:04:58.762Z,94260.31
2023-04-24T02:07:26.672Z,94268.91
2023-04-24T02:09:54.450Z,94269.41
2023-04-24T02:12:22.706Z,94266.63
2023-04-24T02:14:54.379Z,94266.06
2023-04-24T02:17:22.223Z,94267.69
2023-04-24T02:19:50.181Z,94267.78
2023-04-24T02:22:18.556Z,94261.16
2023-04-24T02:24:46.385Z,94266.44
2023-04-24T02:27:16.882Z,94267.78
2023-04-24T02:29:47.619Z,94253.97
2023-04-24T02:32:17.025Z,94261.16
2023-04-24T02:34:44.991Z,94262.72
2023-04-24T02:37:13.927Z,94254.47
2023-04-24T02:39:41.854Z,94268.25
2023-04-24T02:42:10.016Z,94261.78
2023-04-24T02:44:37.840Z,94263.19
2023-04-24T02:47:05.847Z,94264.59
2023-04-24T02:49:35.111Z,94264.16
2023-04-24T02:52:05.662Z,94261.03
2023-04-24T02:54:33.466Z,94255.78
2023-04-24T02:57:02.208Z,94261.63
2023-04-24T02:59:30.347Z,94259.69
2023-04-24T03:01:58.196Z,94261.41
2023-04-24T03:04:26.681Z,94255.91
2023-04-24T03:06:56.261Z,94265.44
2023-04-24T03:09:24.401Z,94259.75
2023-04-24T03:11:52.312Z,94264.91
2023-04-24T03:14:20.359Z,94269.28
2023-04-24T03:16:48.184Z,94256.88
2023-04-24T03:19:16.099Z,94252.56
2023-04-24T03:21:56.994Z,94256.50
2023-04-24T03:24:25.565Z,94257.69
2023-04-24T03:26:53.350Z,94262.41
2023-04-24T03:29:41.572Z,94256.28
2023-04-24T03:32:09.679Z,94255.88
2023-04-24T03:34:39.488Z,94257.84
2023-04-24T03:37:10.141Z,94253.63
2023-04-24T03:39:42.414Z,94252.47
2023-04-24T03:42:10.745Z,94240.31
2023-04-24T03:44:49.309Z,94249.53
2023-04-24T03:47:17.416Z,94243.19
2023-04-24T03:49:46.124Z,94239.78
2023-04-24T03:52:15.392Z,94247.47
2023-04-24T03:54:43.400Z,94247.66
2023-04-24T03:57:12.582Z,94231.41
2023-04-24T03:59:50.858Z,94233.88
2023-04-24T04:02:20.313Z,94233.34
2023-04-24T04:04:48.974Z,94235.91
2023-04-24T04:07:18.336Z,94232.91
2023-04-24T04:09:48.509Z,94230.72
2023-04-24T04:12:17.361Z,94234.25
2023-04-24T04:14:45.251Z,94232.69
2023-04-24T04:17:13.029Z,94229.34
2023-04-24T04:19:41.106Z,94236.22
2023-04-24T04:22:10.095Z,94230.00
2023-04-24T04:24:45.533Z,94249.03
2023-04-24T04:27:13.557Z,94250.00
2023-04-24T04:29:54.382Z,94248.25
2023-04-24T04:32:23.375Z,94242.13
2023-04-24T04:34:54.273Z,94251.16
2023-04-24T04:37:23.419Z,94255.56
2023-04-24T04:39:56.334Z,94255.34
2023-04-24T04:42:27.919Z,94265.22
2023-04-24T04:44:57.084Z,94267.25
2023-04-24T04:47:32.783Z,94270.13
2023-04-24T04:50:01.286Z,94261.03
2023-04-24T04:52:30.001Z,94261.50
2023-04-24T04:55:09.219Z,94267.91
2023-04-24T04:57:58.325Z,94273.81
2023-04-24T05:00:26.433Z,94282.44
2023-04-24T05:02:56.442Z,94272.00
2023-04-24T05:05:28.980Z,94279.53
2023-04-24T05:07:56.890Z,94289.34
2023-04-24T05:10:26.355Z,94289.50
2023-04-24T05:12:55.928Z,94293.78
2023-04-24T05:15:23.897Z,94292.69
2023-04-24T05:17:51.955Z,94289.19
2023-04-24T05:20:19.850Z,94298.38
2023-04-24T05:22:47.710Z,94298.75
2023-04-24T05:25:16.724Z,94310.16
2023-04-24T05:27:55.055Z,94309.53
2023-04-24T05:30:24.322Z,94306.59
2023-04-24T05:32:52.289Z,94307.97
2023-04-24T05:35:20.747Z,94309.22
2023-04-24T05:37:48.711Z,94300.13
2023-04-24T05:40:17.702Z,94300.78
2023-04-24T05:42:45.526Z,94304.03
2023-04-24T05:45:17.806Z,94309.78
2023-04-24T05:47:46.018Z,94302.69
2023-04-24T05:50:14.399Z,94302.34
2023-04-24T05:52:42.475Z,94302.72
2023-04-24T05:55:23.455Z,94315.75
2023-04-24T05:57:51.313Z,94312.84
2023-04-24T06:00:21.543Z,94307.59
2023-04-24T06:02:58.681Z,94314.16
2023-04-24T06:05:26.894Z,94324.91
2023-04-24T06:07:55.039Z,94326.28
2023-04-24T06:10:52.961Z,94324.19
2023-04-24T06:13:22.621Z,94327.28
2023-04-24T06:16:18.069Z,94322.88
2023-04-24T06:18:52.435Z,94337.94
2023-04-24T06:21:21.304Z,94324.19
2023-04-24T06:23:50.172Z,94332.31
2023-04-24T06:26:18.342Z,94339.97
2023-04-24T06:28:46.121Z,94332.06
2023-04-24T06:31:13.949Z,94335.75
2023-04-24T06:33:43.099Z,94340.63
2023-04-24T06:36:11.576Z,94339.56
2023-04-24T06:38:40.447Z,94350.88
2023-04-24T06:41:11.543Z,94342.81
2023-04-24T06:43:39.279Z,94335.63
2023-04-24T06:46:07.155Z,94350.34
2023-04-24T06:48:34.998Z,94351.56
2023-04-24T06:51:04.279Z,94353.03
2023-04-24T06:53:32.143Z,94358.69
2023-04-24T06:56:00.067Z,94365.22
2023-04-24T06:58:28.032Z,94357.66
2023-04-24T07:00:55.851Z,94360.72
2023-04-24T07:03:23.806Z,94360.91
2023-04-24T07:05:52.250Z,94350.97
2023-04-24T07:08:22.344Z,94355.09
2023-04-24T07:10:51.874Z,94360.31
2023-04-24T07:13:19.715Z,94359.16
2023-04-24T07:15:50.001Z,94370.13
2023-04-24T07:18:17.825Z,94373.66
2023-04-24T07:20:45.843Z,94372.06
2023-04-24T07:23:13.700Z,94371.78
2023-04-24T07:25:42.884Z,94378.69
2023-04-24T07:28:10.736Z,94367.06
2023-04-24T07:30:38.571Z,94388.25
2023-04-24T07:33:07.870Z,94399.91
2023-04-24T07:35:36.410Z,94387.03
2023-04-24T07:38:04.411Z,94386.03
2023-04-24T07:40:32.239Z,94390.88
2023-04-24T07:43:01.470Z,94392.09
2023-04-24T07:45:29.350Z,94389.16
2023-04-24T07:47:57.332Z,94391.16
2023-04-24T07:50:25.144Z,94398.13
2023-04-24T07:52:52.917Z,94406.59
2023-04-24T07:55:23.737Z,94405.88
2023-04-24T07:57:53.405Z,94396.81
2023-04-24T08:00:22.833Z,94404.28
2023-04-24T08:02:50.910Z,94398.78
2023-04-24T08:05:19.161Z,94410.06
2023-04-24T08:07:49.588Z,94416.19
2023-04-24T08:10:17.406Z,94411.81
2023-04-24T08:12:45.330Z,94412.25
2023-04-24T08:15:13.143Z,94418.03
2023-04-24T08:17:42.349Z,94420.91
2023-04-24T08:20:14.542Z,94427.13
2023-04-24T08:22:42.824Z,94408.66
2023-04-24T08:25:11.736Z,94424.00
2023-04-24T08:27:39.900Z,94422.72
2023-04-24T08:30:08.997Z,94428.84
2023-04-24T08:32:36.858Z,94449.97
2023-04-24T08:35:06.970Z,94456.75
2023-04-24T08:37:34.848Z,94455.97
2023-04-24T08:40:03.362Z,94455.09
2023-04-24T08:42:34.277Z,94476.41
2023-04-24T08:45:03.389Z,94478.09
2023-04-24T08:47:32.102Z,94475.91
2023-04-24T08:50:03.992Z,94462.97
2023-04-24T08:52:34.550Z,94477.34
2023-04-24T08:55:02.411Z,94475.56
2023-04-24T08:57:31.226Z,94477.75
2023-04-24T09:00:00.504Z,94492.63
2023-04-24T09:02:28.575Z,94490.91
2023-04-24T09:04:58.340Z,94489.31
2023-04-24T09:07:27.366Z,94466.72
2023-04-24T09:09:57.292Z,94481.66
2023-04-24T09:12:25.032Z,94483.56
2023-04-24T09:14:54.424Z,94476.72
2023-04-24T09:17:23.823Z,94490.75
2023-04-24T09:19:52.022Z,94482.06
2023-04-24T09:22:20.068Z,94478.38
2023-04-24T09:24:47.994Z,94473.03
2023-04-24T09:27:19.872Z,94474.47
2023-04-24T09:29:56.814Z,94478.75
2023-04-24T09:32:26.718Z,94488.69
2023-04-24T09:35:08.847Z,94491.56
2023-04-24T09:37:44.164Z,94488.47
2023-04-24T09:40:14.753Z,94489.38
2023-04-24T09:42:46.293Z,94479.00
2023-04-24T09:45:15.761Z,94471.00
2023-04-24T09:47:44.302Z,94490.16
2023-04-24T09:50:17.614Z,94483.84
2023-04-24T09:52:49.187Z,94461.56
2023-04-24T09:55:19.668Z,94480.81
2023-04-24T09:57:57.575Z,94464.59
2023-04-24T10:00:27.758Z,94474.91
2023-04-24T10:03:00.398Z,94458.22
2023-04-24T10:05:33.464Z,94464.28
2023-04-24T10:08:05.440Z,94473.56
2023-04-24T10:10:34.434Z,94478.50
2023-04-24T10:13:03.979Z,94466.44
2023-04-24T10:15:32.533Z,94470.63
2023-04-24T10:18:01.422Z,94473.34
2023-04-24T10:20:31.673Z,94464.50
2023-04-24T10:23:00.852Z,94468.16
2023-04-24T10:25:30.129Z,94461.47
2023-04-24T10:28:00.591Z,94462.13
2023-04-24T10:30:31.189Z,94451.16
2023-04-24T10:32:59.067Z,94455.28
2023-04-24T10:35:27.930Z,94466.44
2023-04-24T10:37:59.605Z,94456.06
2023-04-24T10:40:29.747Z,94465.47
2023-04-24T10:42:59.006Z,94472.50
2023-04-24T10:45:27.416Z,94513.88
2023-04-24T10:48:11.812Z,94526.28
2023-04-24T10:50:46.906Z,94520.34
2023-04-24T10:53:17.083Z,94519.09
2023-04-24T10:55:47.426Z,94495.31
2023-04-24T10:58:20.236Z,94493.72
2023-04-24T11:00:59.056Z,94503.50
2023-04-24T11:03:30.629Z,94492.56
2023-04-24T11:06:01.360Z,94499.66
2023-04-24T11:08:34.647Z,94489.91
2023-04-24T11:11:06.405Z,94484.72
2023-04-24T11:14:07.237Z,94481.78
2023-04-24T11:16:36.890Z,94491.22
2023-04-24T11:19:09.165Z,94487.91
2023-04-24T11:21:43.520Z,94498.56
2023-04-24T11:24:29.898Z,94502.09
2023-04-24T11:26:59.001Z,94480.03
2023-04-24T11:29:41.147Z,94480.72
2023-04-24T11:32:36.267Z,94493.22
2023-04-24T11:35:07.889Z,94505.63
2023-04-24T11:37:38.086Z,94507.78
2023-04-24T11:40:08.459Z,94495.34
2023-04-24T11:42:36.759Z,94500.06
2023-04-24T11:45:10.348Z,94500.50
2023-04-24T11:47:38.375Z,94485.75
2023-04-24T11:50:10.831Z,94502.66
2023-04-24T11:52:40.152Z,94505.81
2023-04-24T11:55:10.481Z,94502.97
2023-04-24T11:57:38.511Z,94518.06
2023-04-24T12:00:09.678Z,94506.75
2023-04-24T12:02:41.060Z,94519.38
2023-04-24T12:05:13.029Z,94538.13
2023-04-24T12:07:44.872Z,94507.41
2023-04-24T12:10:12.818Z,94506.94
2023-04-24T12:12:40.808Z,94501.75
2023-04-24T12:15:10.143Z,94508.38
2023-04-24T12:17:38.567Z,94494.03
2023-04-24T12:20:08.582Z,94475.63
2023-04-24T12:22:47.847Z,94481.13
2023-04-24T12:25:16.777Z,94486.28
2023-04-24T12:27:45.459Z,94497.81
2023-04-24T12:30:16.159Z,94490.44
2023-04-24T12:32:45.559Z,94477.47
2023-04-24T12:35:13.495Z,94480.59
2023-04-24T12:37:47.198Z,94493.94
2023-04-24T12:40:17.453Z,94490.78
2023-04-24T12:42:46.804Z,94493.97
2023-04-24T12:45:15.685Z,94510.81
2023-04-24T12:47:44.952Z,94506.31
2023-04-24T12:50:14.599Z,94515.38
2023-04-24T12:52:43.215Z,94501.38
2023-04-24T12:55:12.856Z,94500.84
2023-04-24T12:57:42.547Z,94504.66
2023-04-24T13:00:11.125Z,94509.00
2023-04-24T13:02:39.324Z,94503.63
2023-04-24T13:05:12.554Z,94502.72
2023-04-24T13:07:40.458Z,94511.75
2023-04-24T13:10:09.805Z,94499.09
2023-04-24T13:12:38.125Z,94498.22
2023-04-24T13:15:08.740Z,94492.91
2023-04-24T13:17:36.548Z,94479.66
2023-04-24T13:20:05.188Z,94503.75
2023-04-24T13:22:33.174Z,94516.72
2023-04-24T13:25:02.424Z,94525.44
2023-04-24T13:27:30.249Z,94518.59
2023-04-24T13:29:58.115Z,94521.41
2023-04-24T13:32:27.777Z,94513.16
2023-04-24T13:34:55.595Z,94512.72
2023-04-24T13:37:23.821Z,94526.69
2023-04-24T13:39:52.268Z,94519.75
2023-04-24T13:42:21.005Z,94507.66
2023-04-24T13:44:48.892Z,94512.59
2023-04-24T13:47:16.690Z,94512.47
2023-04-24T13:49:45.930Z,94514.13
2023-04-24T13:52:14.927Z,94496.69
2023-04-24T13:54:42.783Z,94506.63
2023-04-24T13:57:10.578Z,94506.53
2023-04-24T13:59:38.629Z,94511.47
2023-04-24T14:02:06.603Z,94511.50
2023-04-24T14:04:34.781Z,94496.72
2023-04-24T14:07:04.046Z,94500.59
2023-04-24T14:09:31.779Z,94493.69
2023-04-24T14:11:59.622Z,94503.91
2023-04-24T14:14:27.636Z,94504.28
2023-04-24T14:16:55.472Z,94495.06
2023-04-24T14:19:23.312Z,94507.22
2023-04-24T14:21:51.161Z,94500.13
2023-04-24T14:24:20.814Z,94537.69
2023-04-24T14:26:48.586Z,94512.31
2023-04-24T14:29:17.341Z,94496.88
2023-04-24T14:31:45.784Z,94524.31
2023-04-24T14:34:13.705Z,94540.56
2023-04-24T14:36:41.509Z,94520.97
2023-04-24T14:39:09.272Z,94538.97
2023-04-24T14:41:40.203Z,94523.06
2023-04-24T14:44:08.046Z,94515.84
2023-04-24T14:46:36.051Z,94554.88
2023-04-24T14:49:03.820Z,94528.78
2023-04-24T14:51:32.116Z,94537.75
2023-04-24T14:54:01.010Z,94523.56
2023-04-24T14:56:31.313Z,94539.88
2023-04-24T14:59:00.608Z,94518.00
2023-04-24T15:01:28.535Z,94523.44
2023-04-24T15:03:56.409Z,94522.91
2023-04-24T15:06:24.338Z,94517.72
2023-04-24T15:08:52.074Z,94525.13
2023-04-24T15:11:22.002Z,94526.50
2023-04-24T15:13:52.388Z,94528.84
2023-04-24T15:16:21.743Z,94538.78
2023-04-24T15:18:49.615Z,94523.75
2023-04-24T15:21:17.450Z,94534.84
2023-04-24T15:23:48.336Z,94548.13
2023-04-24T15:26:16.396Z,94554.66
2023-04-24T15:28:44.183Z,94544.69
2023-04-24T15:31:11.955Z,94555.25
2023-04-24T15:33:41.433Z,94553.56
2023-04-24T15:36:09.996Z,94527.13
2023-04-24T15:38:37.980Z,94540.69
2023-04-24T15:41:05.945Z,94568.66
2023-04-24T15:43:36.703Z,94545.16
2023-04-24T15:46:05.379Z,94555.91
2023-04-24T15:48:33.732Z,94564.16
2023-04-24T15:51:03.054Z,94563.94
2023-04-24T15:53:31.128Z,94550.19
2023-04-24T15:55:59.046Z,94538.97
2023-04-24T15:58:26.872Z,94545.44
2023-04-24T16:00:55.554Z,94558.00
2023-04-24T16:03:23.661Z,94562.44
2023-04-24T16:05:51.737Z,94560.91
2023-04-24T16:08:22.418Z,94561.09
2023-04-24T16:10:50.502Z,94575.09
2023-04-24T16:13:18.724Z,94570.09
2023-04-24T16:15:46.625Z,94560.22
2023-04-24T16:18:14.524Z,94565.59
2023-04-24T16:20:42.393Z,94571.16
2023-04-24T16:23:10.331Z,94582.66
2023-04-24T16:25:39.493Z,94584.22
2023-04-24T16:28:07.458Z,94565.28
2023-04-24T16:30:36.552Z,94578.13
2023-04-24T16:33:07.496Z,94586.06
2023-04-24T16:35:35.421Z,94596.44
2023-04-24T16:38:05.803Z,94581.75
2023-04-24T16:40:33.644Z,94599.75
2023-04-24T16:43:02.809Z,94594.47
2023-04-24T16:45:30.674Z,94598.09
2023-04-24T16:47:58.569Z,94587.03
2023-04-24T16:50:26.418Z,94590.50
2023-04-24T16:52:54.356Z,94596.66
2023-04-24T16:55:22.155Z,94590.91
2023-04-24T16:57:50.132Z,94588.13
2023-04-24T17:00:19.967Z,94593.38
2023-04-24T17:02:49.585Z,94594.94
2023-04-24T17:05:19.486Z,94594.72
2023-04-24T17:07:47.391Z,94587.94
2023-04-24T17:10:15.288Z,94600.06
2023-04-24T17:12:43.123Z,94601.25
2023-04-24T17:15:11.691Z,94600.75
2023-04-24T17:17:42.590Z,94601.94
2023-04-24T17:20:21.385Z,94612.00
2023-04-24T17:22:50.988Z,94613.72
2023-04-24T17:25:19.270Z,94605.81
2023-04-24T17:27:47.293Z,94617.91
2023-04-24T17:30:17.556Z,94623.06
2023-04-24T17:32:46.961Z,94626.41
2023-04-24T17:35:15.206Z,94606.94
2023-04-24T17:37:43.097Z,94618.72
2023-04-24T17:40:11.786Z,94617.88
2023-04-24T17:42:41.377Z,94620.34
2023-04-24T17:45:10.634Z,94622.28
2023-04-24T17:47:38.737Z,94614.34
2023-04-24T17:50:08.765Z,94622.56
2023-04-24T17:52:36.684Z,94621.91
2023-04-24T17:55:04.880Z,94623.91
2023-04-24T17:57:32.870Z,94614.53
2023-04-24T18:00:00.862Z,94631.34
2023-04-24T18:02:28.907Z,94633.72
2023-04-24T18:04:56.908Z,94634.19
2023-04-24T18:07:26.083Z,94641.50
2023-04-24T18:09:56.117Z,94641.34
2023-04-24T18:12:24.212Z,94630.56
2023-04-24T18:14:59.755Z,94646.75
2023-04-24T18:17:34.572Z,94641.84
2023-04-24T18:20:02.425Z,94645.22
2023-04-24T18:22:31.706Z,94651.34
2023-04-24T18:24:59.744Z,94646.84
2023-04-24T18:27:30.895Z,94647.13
2023-04-24T18:29:58.956Z,94657.44
2023-04-24T18:32:27.293Z,94657.84
2023-04-24T18:34:55.336Z,94668.09
2023-04-24T18:37:23.312Z,94665.34
2023-04-24T18:39:52.697Z,94674.19
2023-04-24T18:42:20.705Z,94666.50
2023-04-24T18:44:51.303Z,94679.13
2023-04-24T18:47:19.191Z,94669.06
2023-04-24T18:49:47.069Z,94673.59
2023-04-24T18:52:14.966Z,94676.00
2023-04-24T18:54:42.877Z,94675.81
2023-04-24T18:57:12.118Z,94673.06
2023-04-24T18:59:39.935Z,94681.72
2023-04-24T19:02:08.886Z,94678.19
2023-04-24T19:04:37.095Z,94684.91
2023-04-24T19:07:05.334Z,94694.75
2023-04-24T19:09:33.176Z,94696.31
2023-04-24T19:12:01.698Z,94698.09
2023-04-24T19:14:30.966Z,94704.78
2023-04-24T19:16:58.855Z,94702.00
2023-04-24T19:19:28.630Z,94700.06
2023-04-24T19:21:56.611Z,94700.63
2023-04-24T19:24:26.111Z,94694.72
2023-04-24T19:26:54.015Z,94692.38
2023-04-24T19:29:21.869Z,94694.53
2023-04-24T19:31:51.315Z,94705.16
2023-04-24T19:34:19.114Z,94700.06
2023-04-24T19:36:47.088Z,94695.72
2023-04-24T19:39:15.042Z,94707.91
2023-04-24T19:41:42.926Z,94704.78
2023-04-24T19:44:11.278Z,94701.25
2023-04-24T19:46:39.942Z,94704.19
2023-04-24T19:49:09.237Z,94701.63
2023-04-24T19:51:37.718Z,94706.16
2023-04-24T19:54:06.580Z,94707.50
2023-04-24T19:56:35.595Z,94701.25
2023-04-24T19:59:03.804Z,94705.53
2023-04-24T20:01:32.387Z,94715.38
2023-04-24T20:04:01.405Z,94706.13
2023-04-24T20:06:30.696Z,94705.31
2023-04-24T20:08:58.458Z,94709.66
2023-04-24T20:11:26.510Z,94706.09
2023-04-24T20:13:54.404Z,94709.06
2023-04-24T20:16:22.291Z,94706.69
2023-04-24T20:18:50.514Z,94697.47
2023-04-24T20:21:18.692Z,94709.66
2023-04-24T20:23:48.001Z,94710.63
2023-04-24T20:26:15.856Z,94712.41
2023-04-24T20:28:43.762Z,94720.44
2023-04-24T20:31:11.755Z,94713.72
2023-04-24T20:33:41.483Z,94713.53
2023-04-24T20:36:10.289Z,94718.88
2023-04-24T20:38:38.352Z,94715.16
2023-04-24T20:41:10.196Z,94722.00
2023-04-24T20:43:38.089Z,94712.50
2023-04-24T20:46:07.032Z,94720.00
2023-04-24T20:48:34.876Z,94718.19
2023-04-24T20:51:02.740Z,94715.66
2023-04-24T20:53:30.964Z,94710.75
2023-04-24T20:55:58.878Z,94705.03
2023-04-24T20:58:30.511Z,94698.72
2023-04-24T21:00:58.305Z,94703.84
2023-04-24T21:03:27.335Z,94699.50
2023-04-24T21:05:56.025Z,94701.41
2023-04-24T21:08:23.966Z,94689.63
2023-04-24T21:10:52.936Z,94677.03
2023-04-24T21:13:20.951Z,94694.94
2023-04-24T21:15:50.226Z,94689.81
2023-04-24T21:18:18.057Z,94698.19
2023-04-24T21:20:46.612Z,94687.78
2023-04-24T21:23:15.637Z,94688.13
2023-04-24T21:25:43.877Z,94694.94
2023-04-24T21:28:11.874Z,94691.41
2023-04-24T21:30:40.027Z,94689.78
2023-04-24T21:33:09.420Z,94689.38
2023-04-24T21:35:37.305Z,94687.56
2023-04-24T21:38:05.155Z,94694.28
2023-04-24T21:40:33.156Z,94693.69
2023-04-24T21:43:01.255Z,94699.38
2023-04-24T21:45:29.297Z,94690.81
2023-04-24T21:47:58.482Z,94690.00
2023-04-24T21:50:27.682Z,94697.66
2023-04-24T21:52:55.546Z,94695.06
2023-04-24T21:55:23.506Z,94692.69
2023-04-24T21:57:51.603Z,94687.22
2023-04-24T22:00:19.530Z,94687.78
2023-04-24T22:02:47.511Z,94677.94
2023-04-24T22:05:17.779Z,94678.56
2023-04-24T22:07:50.641Z,94671.13
2023-04-24T22:10:18.909Z,94671.13
2023-04-24T22:12:46.722Z,94671.09
2023-04-24T22:15:14.706Z,94677.16
2023-04-24T22:17:43.624Z,94672.84
2023-04-24T22:20:12.219Z,94668.50
2023-04-24T22:22:40.114Z,94672.59
2023-04-24T22:25:10.295Z,94666.94
2023-04-24T22:27:38.204Z,94664.75
2023-04-24T22:30:08.166Z,94661.38
2023-04-24T22:32:36.314Z,94652.59
2023-04-24T22:35:04.461Z,94661.06
2023-04-24T22:37:32.267Z,94651.28
2023-04-24T22:40:01.282Z,94651.09
2023-04-24T22:42:31.240Z,94644.22
2023-04-24T22:44:59.121Z,94649.94
2023-04-24T22:47:27.078Z,94646.97
2023-04-24T22:49:55.192Z,94643.81
2023-04-24T22:52:23.028Z,94640.88
2023-04-24T22:54:50.947Z,94644.59
2023-04-24T22:57:18.816Z,94644.38
2023-04-24T22:59:49.068Z,94633.97
2023-04-24T23:02:17.030Z,94630.75
2023-04-24T23:04:44.952Z,94628.34
2023-04-24T23:07:12.777Z,94627.97
2023-04-24T23:09:40.641Z,94628.94
2023-04-24T23:12:08.583Z,94621.66
2023-04-24T23:14:36.768Z,94622.03
2023-04-24T23:17:06.008Z,94620.28
2023-04-24T23:19:33.839Z,94618.13
2023-04-24T23:22:01.738Z,94615.78
2023-04-24T23:24:29.572Z,94614.38
2023-04-24T23:26:57.375Z,94601.59
2023-04-24T23:29:26.208Z,94612.53
2023-04-24T23:31:54.178Z,94607.94
2023-04-24T23:34:23.672Z,94608.53
2023-04-24T23:36:52.426Z,94611.69
2023-04-24T23:39:20.276Z,94611.25
2023-04-24T23:41:49.388Z,94605.97
2023-04-24T23:44:17.337Z,94608.34
2023-04-24T23:46:45.053Z,94603.88
2023-04-24T23:49:12.954Z,94601.88
2023-04-24T23:51:42.196Z,94591.69
2023-04-24T23:54:10.057Z,94597.38
2023-04-24T23:56:38.163Z,94588.94
2023-04-24T23:59:06.004Z,94579.88
